Time;durP1;ratioP1;P1;durP2;ratioP2;P2;SDS_P1;SDS_P2;PMS_P1;PMS_P2;Temp;Humidity;BMP_temperature;BMP_pressure;BME280_temperature;BME280_humidity;BME280_pressure;Samples;Min_cycle;Max_cycle;Signal;HPM_P1;HPM_P2
2023/10/19 00:00:56;;;;;;;20.40;13.88;;;8.50;99.90;;;;;;5034405;28;20041;-58
2023/10/19 00:03:23;;;;;;;21.00;14.35;;;8.40;99.90;;;;;;4992874;28;20088;-59
2023/10/19 00:05:49;;;;;;;17.58;13.63;;;8.50;99.90;;;;;;5034096;28;20602;-59
2023/10/19 00:08:16;;;;;;;21.90;14.25;;;8.50;99.90;;;;;;5034763;28;20040;-58
2023/10/19 00:10:45;;;;;;;19.70;14.35;;;8.40;99.90;;;;;;5034987;28;20084;-59
2023/10/19 00:13:12;;;;;;;20.83;14.23;;;8.50;99.90;;;;;;5030474;28;20057;-60
2023/10/19 00:16:11;;;;;;;22.45;14.85;;;8.40;99.90;;;;;;5027450;28;20492;-59
2023/10/19 00:18:32;;;;;;;19.80;14.15;;;8.50;99.90;;;;;;5036402;28;20124;-59
2023/10/19 00:23:42;;;;;;;21.60;15.30;;;8.30;99.90;;;;;;5038288;28;20048;-59
2023/10/19 00:26:15;;;;;;;23.73;15.45;;;8.40;99.90;;;;;;5024696;28;20045;-59
2023/10/19 00:28:41;;;;;;;21.45;15.68;;;8.30;99.90;;;;;;5036592;28;20080;-58
2023/10/19 00:31:11;;;;;;;22.25;15.00;;;8.40;99.90;;;;;;5015896;28;20132;-59
2023/10/19 00:33:40;;;;;;;22.40;15.27;;;8.30;99.90;;;;;;5040552;28;20079;-59
2023/10/19 00:36:31;;;;;;;23.23;15.65;;;8.40;99.90;;;;;;5018899;28;20087;-59
2023/10/19 00:38:56;;;;;;;22.05;15.57;;;8.30;99.90;;;;;;5024867;28;20485;-58
2023/10/19 00:41:29;;;;;;;22.83;15.63;;;8.30;99.90;;;;;;5036852;28;20035;-59
2023/10/19 00:43:58;;;;;;;24.52;16.88;;;8.30;99.90;;;;;;5041304;28;20041;-60
2023/10/19 00:46:31;;;;;;;23.42;15.77;;;8.30;99.90;;;;;;5043085;28;20091;-59
2023/10/19 00:49:05;;;;;;;21.67;15.30;;;8.30;99.90;;;;;;5031879;28;20106;-58
2023/10/19 00:54:31;;;;;;;25.17;15.98;;;8.30;99.90;;;;;;5034212;28;20048;-59
2023/10/19 00:57:07;;;;;;;23.88;16.05;;;8.30;99.90;;;;;;5019556;28;20075;-60
2023/10/19 00:59:47;;;;;;;23.50;15.73;;;8.30;99.90;;;;;;5040637;28;20045;-59
2023/10/19 01:04:50;;;;;;;24.98;16.17;;;8.30;99.90;;;;;;5044083;28;20042;-59
2023/10/19 01:09:56;;;;;;;21.95;16.20;;;8.30;99.90;;;;;;5037160;28;20582;-60
2023/10/19 01:15:17;;;;;;;26.02;16.73;;;8.30;99.90;;;;;;5044104;28;20091;-59
2023/10/19 01:17:56;;;;;;;21.95;15.60;;;8.20;99.90;;;;;;5041744;28;20048;-59
2023/10/19 01:25:47;;;;;;;23.02;16.60;;;8.30;99.90;;;;;;5041305;28;20044;-59
2023/10/19 01:28:16;;;;;;;22.80;16.30;;;8.30;99.90;;;;;;5042667;28;20072;-58
2023/10/19 01:30:44;;;;;;;23.92;16.42;;;8.30;99.90;;;;;;5022217;28;20056;-58
2023/10/19 01:33:15;;;;;;;22.25;15.80;;;8.30;99.90;;;;;;5018003;28;20540;-60
2023/10/19 01:38:30;;;;;;;22.95;16.63;;;8.30;99.90;;;;;;5015594;28;20662;-59
2023/10/19 01:41:00;;;;;;;24.85;16.83;;;8.30;99.90;;;;;;5044603;28;20552;-59
2023/10/19 01:43:31;;;;;;;22.73;16.88;;;8.20;99.90;;;;;;5035292;28;20045;-57
2023/10/19 01:45:58;;;;;;;22.70;16.80;;;8.30;99.90;;;;;;5014523;28;20049;-58
2023/10/19 01:48:33;;;;;;;23.27;16.20;;;8.20;99.90;;;;;;5029683;28;20043;-59
2023/10/19 01:51:04;;;;;;;23.10;16.92;;;8.30;99.90;;;;;;5015699;28;20499;-59
2023/10/19 01:53:30;;;;;;;24.23;17.50;;;8.20;99.90;;;;;;5035187;28;20090;-59
2023/10/19 01:55:59;;;;;;;24.70;16.83;;;8.30;99.90;;;;;;5032939;28;20429;-59
2023/10/19 01:58:25;;;;;;;23.42;16.88;;;8.20;99.90;;;;;;5000567;28;20033;-59
2023/10/19 02:00:55;;;;;;;22.58;16.70;;;8.20;99.90;;;;;;5033764;28;20045;-60
2023/10/19 02:03:25;;;;;;;20.92;16.05;;;8.20;99.90;;;;;;5027998;28;20040;-59
2023/10/19 02:05:58;;;;;;;25.13;17.13;;;8.20;99.90;;;;;;5025014;28;20910;-60
2023/10/19 02:08:27;;;;;;;23.00;16.60;;;8.20;99.90;;;;;;5015290;28;20543;-58
2023/10/19 02:10:53;;;;;;;22.48;16.83;;;8.20;99.90;;;;;;5034502;28;20046;-59
2023/10/19 02:13:20;;;;;;;21.75;15.52;;;8.20;99.90;;;;;;5034711;28;20129;-60
2023/10/19 02:15:46;;;;;;;22.70;16.95;;;8.20;99.90;;;;;;5021319;28;20494;-60
2023/10/19 02:18:12;;;;;;;23.52;16.15;;;8.20;99.90;;;;;;5041971;28;20045;-59
2023/10/19 02:20:40;;;;;;;21.20;16.02;;;8.20;99.90;;;;;;5034971;28;20127;-59
2023/10/19 02:23:07;;;;;;;22.40;15.57;;;8.20;99.90;;;;;;5043684;28;20692;-59
2023/10/19 02:25:36;;;;;;;21.90;16.02;;;8.20;99.90;;;;;;5041557;28;20044;-60
2023/10/19 02:28:09;;;;;;;21.63;15.90;;;8.20;99.90;;;;;;5041222;28;20041;-59
2023/10/19 02:30:35;;;;;;;20.88;14.57;;;8.20;99.90;;;;;;5030971;28;20120;-59
2023/10/19 02:33:03;;;;;;;22.20;15.90;;;8.20;99.90;;;;;;5036514;28;20053;-59
2023/10/19 02:35:28;;;;;;;20.05;15.50;;;8.20;99.90;;;;;;5040961;28;20033;-58
2023/10/19 02:37:54;;;;;;;20.80;15.27;;;8.20;99.90;;;;;;5040176;28;20060;-60
2023/10/19 02:40:24;;;;;;;19.33;14.52;;;8.20;99.90;;;;;;5041601;28;20036;-60
2023/10/19 02:42:50;;;;;;;19.73;14.65;;;8.20;99.90;;;;;;5038100;28;20396;-60
2023/10/19 02:45:18;;;;;;;20.33;14.82;;;8.20;99.90;;;;;;5031551;28;20048;-60
2023/10/19 02:47:44;;;;;;;18.13;14.43;;;8.20;99.90;;;;;;5033898;28;20087;-58
2023/10/19 02:50:16;;;;;;;17.73;14.30;;;8.20;99.90;;;;;;5035813;28;20047;-60
2023/10/19 02:52:43;;;;;;;17.10;12.88;;;8.20;99.90;;;;;;5041847;28;20106;-60
2023/10/19 02:55:10;;;;;;;19.35;13.45;;;8.20;99.90;;;;;;5043165;28;20052;-59
2023/10/19 02:57:37;;;;;;;18.85;13.45;;;8.20;99.90;;;;;;5018841;28;20029;-60
2023/10/19 03:00:13;;;;;;;16.48;13.07;;;8.20;99.90;;;;;;5036577;28;20133;-60
2023/10/19 03:02:39;;;;;;;18.23;13.57;;;8.10;99.90;;;;;;5043958;28;20033;-60
2023/10/19 03:05:16;;;;;;;16.95;13.00;;;8.20;99.90;;;;;;5020244;28;20630;-59
2023/10/19 03:07:45;;;;;;;15.02;12.63;;;8.20;99.90;;;;;;5040202;28;20060;-59
2023/10/19 03:12:57;;;;;;;18.13;12.35;;;8.20;99.90;;;;;;5044924;28;20120;-59
2023/10/19 03:15:23;;;;;;;16.65;12.95;;;8.20;99.90;;;;;;5042730;28;20037;-59
2023/10/19 03:17:49;;;;;;;15.48;12.32;;;8.10;99.90;;;;;;5008477;28;20059;-58
2023/10/19 03:20:17;;;;;;;17.77;12.40;;;8.20;99.90;;;;;;5006127;28;20039;-59
2023/10/19 03:22:46;;;;;;;15.20;11.82;;;8.20;99.90;;;;;;5031053;28;20036;-59
2023/10/19 03:28:05;;;;;;;16.35;12.55;;;8.20;99.90;;;;;;5025807;28;20053;-59
2023/10/19 03:30:31;;;;;;;16.13;11.68;;;8.20;99.90;;;;;;5015514;28;20591;-59
2023/10/19 03:32:59;;;;;;;14.55;11.68;;;8.20;99.90;;;;;;5032698;28;20049;-59
2023/10/19 03:35:25;;;;;;;15.52;11.60;;;8.20;99.90;;;;;;5035025;28;20381;-60
2023/10/19 03:37:51;;;;;;;16.92;11.70;;;8.20;99.90;;;;;;5035316;28;20057;-60
2023/10/19 03:40:27;;;;;;;15.60;11.88;;;8.20;99.90;;;;;;5006299;28;20045;-59
2023/10/19 03:42:54;;;;;;;16.42;11.63;;;8.20;99.90;;;;;;5005582;28;20049;-61
2023/10/19 03:45:23;;;;;;;16.00;11.80;;;8.20;99.90;;;;;;5028535;28;20044;-59
2023/10/19 03:47:53;;;;;;;16.23;11.77;;;8.20;99.90;;;;;;5027352;28;20488;-59
2023/10/19 03:50:22;;;;;;;13.88;11.13;;;8.20;99.90;;;;;;5037094;28;20090;-60
2023/10/19 03:52:48;;;;;;;14.50;11.40;;;8.20;99.90;;;;;;4992179;28;20636;-58
2023/10/19 03:55:23;;;;;;;14.20;11.00;;;8.10;99.90;;;;;;5039961;28;20036;-60
2023/10/19 03:57:54;;;;;;;13.73;10.63;;;8.20;99.90;;;;;;5025849;28;20065;-60
2023/10/19 04:00:24;;;;;;;14.85;10.50;;;8.20;99.90;;;;;;5041230;28;20814;-60
2023/10/19 04:02:55;;;;;;;14.80;10.73;;;8.20;99.90;;;;;;5042659;28;20041;-60
2023/10/19 04:05:22;;;;;;;13.27;10.35;;;8.20;99.90;;;;;;5045010;28;20495;-59
2023/10/19 04:07:56;;;;;;;14.63;11.25;;;8.20;99.90;;;;;;5044001;28;20047;-58
2023/10/19 04:13:01;;;;;;;13.75;11.48;;;8.20;99.90;;;;;;5025052;28;20048;-60
2023/10/19 04:15:29;;;;;;;13.48;10.65;;;8.20;99.90;;;;;;5024967;28;20116;-60
2023/10/19 04:17:58;;;;;;;14.77;11.23;;;8.20;99.90;;;;;;5040413;28;20033;-59
2023/10/19 04:20:35;;;;;;;13.80;10.80;;;8.10;99.90;;;;;;5034715;28;20179;-60
2023/10/19 04:23:10;;;;;;;13.48;10.63;;;8.20;99.90;;;;;;5032944;28;20048;-60
2023/10/19 04:25:36;;;;;;;14.40;11.18;;;8.20;99.90;;;;;;5042491;28;20438;-60
2023/10/19 04:28:02;;;;;;;14.10;10.77;;;8.20;99.90;;;;;;5044693;28;20036;-59
2023/10/19 04:30:29;;;;;;;12.07;9.88;;;8.30;99.90;;;;;;4994019;28;20037;-60
2023/10/19 04:32:58;;;;;;;13.25;10.00;;;8.20;99.90;;;;;;5044674;28;20116;-60
2023/10/19 04:35:24;;;;;;;13.07;10.10;;;8.30;99.90;;;;;;5026148;28;20045;-58
2023/10/19 04:37:52;;;;;;;14.13;10.02;;;8.30;99.90;;;;;;5048505;28;20052;-59
2023/10/19 04:40:19;;;;;;;12.30;9.45;;;8.30;99.90;;;;;;5047691;28;20515;-59
2023/10/19 04:42:46;;;;;;;11.07;9.45;;;8.30;99.90;;;;;;5034558;28;20051;-60
2023/10/19 04:45:12;;;;;;;12.98;9.95;;;8.30;99.90;;;;;;5026369;28;20115;-60
2023/10/19 04:47:39;;;;;;;11.82;9.60;;;8.30;99.90;;;;;;5043962;28;20170;-60
2023/10/19 04:50:05;;;;;;;10.35;8.65;;;8.30;99.90;;;;;;5048536;28;20048;-59
2023/10/19 04:52:32;;;;;;;10.63;8.50;;;8.30;99.90;;;;;;5043317;28;20044;-60
2023/10/19 04:54:58;;;;;;;12.27;8.85;;;8.30;99.90;;;;;;5030868;28;20049;-59
2023/10/19 04:57:25;;;;;;;11.50;8.90;;;8.30;99.90;;;;;;5048171;28;20483;-59
2023/10/19 04:59:52;;;;;;;12.18;9.77;;;8.30;99.90;;;;;;5042459;28;20171;-59
2023/10/19 05:02:17;;;;;;;11.52;9.27;;;8.30;99.90;;;;;;5049076;28;20037;-58
2023/10/19 05:04:45;;;;;;;11.05;8.93;;;8.30;99.90;;;;;;5046283;28;20403;-60
2023/10/19 05:07:16;;;;;;;11.52;8.82;;;8.30;99.90;;;;;;5040702;28;20095;-59
2023/10/19 05:09:45;;;;;;;10.18;8.48;;;8.30;99.90;;;;;;5036549;28;20032;-60
2023/10/19 05:12:14;;;;;;;9.20;7.95;;;8.30;99.90;;;;;;5049107;28;20032;-59
2023/10/19 05:14:41;;;;;;;8.75;7.75;;;8.30;99.90;;;;;;5037464;28;20189;-59
2023/10/19 05:17:09;;;;;;;9.70;7.97;;;8.30;99.90;;;;;;5039698;28;20523;-60
2023/10/19 05:19:36;;;;;;;10.25;8.20;;;8.30;99.90;;;;;;5043236;28;20044;-60
2023/10/19 05:22:05;;;;;;;10.18;8.15;;;8.30;99.90;;;;;;5021344;28;20120;-60
2023/10/19 05:24:32;;;;;;;10.27;7.68;;;8.40;99.90;;;;;;5032630;28;20064;-60
2023/10/19 05:26:58;;;;;;;9.30;7.30;;;8.40;99.90;;;;;;5042158;28;20045;-60
2023/10/19 05:29:24;;;;;;;9.15;7.35;;;8.40;99.90;;;;;;5021225;28;20048;-60
2023/10/19 05:31:54;;;;;;;8.60;7.35;;;8.40;99.90;;;;;;5011218;28;20404;-59
2023/10/19 05:34:23;;;;;;;10.55;7.25;;;8.40;99.90;;;;;;5042477;28;20040;-59
2023/10/19 05:36:49;;;;;;;9.48;7.18;;;8.40;99.90;;;;;;5038789;28;20045;-59
2023/10/19 05:39:17;;;;;;;8.40;6.70;;;8.40;99.90;;;;;;5042645;28;20560;-59
2023/10/19 05:41:43;;;;;;;9.75;7.25;;;8.40;99.90;;;;;;5041529;28;20036;-60
2023/10/19 05:44:10;;;;;;;8.20;6.97;;;8.40;99.90;;;;;;5042810;28;20044;-60
2023/10/19 05:46:36;;;;;;;8.00;6.70;;;8.40;99.90;;;;;;5024578;28;20037;-59
2023/10/19 05:49:03;;;;;;;7.85;6.40;;;8.50;99.90;;;;;;5043190;28;20118;-60
2023/10/19 05:51:30;;;;;;;7.88;6.40;;;8.40;99.90;;;;;;5043905;28;20080;-60
2023/10/19 05:54:01;;;;;;;7.40;6.43;;;8.40;99.90;;;;;;5046050;28;20103;-60
2023/10/19 05:56:28;;;;;;;6.97;6.13;;;8.40;99.90;;;;;;5045144;28;20143;-60
2023/10/19 05:58:54;;;;;;;7.82;5.30;;;8.40;99.90;;;;;;5031973;28;20419;-60
2023/10/19 06:01:21;;;;;;;6.70;5.32;;;8.40;99.90;;;;;;5007759;28;20327;-60
2023/10/19 06:03:47;;;;;;;5.28;4.78;;;8.40;99.90;;;;;;5044362;28;20055;-60
2023/10/19 06:06:13;;;;;;;6.10;4.93;;;8.40;99.90;;;;;;5043305;28;20304;-61
2023/10/19 06:08:40;;;;;;;6.80;4.95;;;8.40;99.90;;;;;;5040724;28;20037;-60
2023/10/19 06:11:06;;;;;;;5.75;5.15;;;8.40;99.90;;;;;;5040837;28;20491;-60
2023/10/19 06:13:32;;;;;;;5.85;5.13;;;8.40;99.90;;;;;;5043546;28;20033;-59
2023/10/19 06:15:58;;;;;;;5.38;4.63;;;8.40;99.90;;;;;;5037275;28;20153;-60
2023/10/19 06:18:24;;;;;;;5.43;4.82;;;8.40;99.90;;;;;;5042886;28;20037;-59
2023/10/19 06:20:51;;;;;;;6.03;5.10;;;8.50;99.90;;;;;;5013624;28;20047;-60
2023/10/19 06:23:17;;;;;;;8.32;5.32;;;8.40;99.90;;;;;;5031233;28;20052;-60
2023/10/19 06:25:44;;;;;;;5.28;4.60;;;8.50;99.90;;;;;;5032207;28;20082;-60
2023/10/19 06:28:11;;;;;;;5.78;5.00;;;8.40;99.90;;;;;;5037480;28;20041;-60
2023/10/19 06:30:37;;;;;;;5.68;4.70;;;8.40;99.90;;;;;;5018445;28;20110;-60
2023/10/19 06:33:03;;;;;;;5.53;4.70;;;8.50;99.90;;;;;;5021010;28;20033;-60
2023/10/19 06:35:33;;;;;;;5.07;4.57;;;8.50;99.90;;;;;;5030980;28;20509;-59
2023/10/19 06:38:00;;;;;;;4.72;3.90;;;8.50;99.90;;;;;;5034116;28;20045;-60
2023/10/19 06:40:27;;;;;;;4.75;4.07;;;8.50;99.90;;;;;;5035305;28;20454;-60
2023/10/19 06:42:58;;;;;;;4.68;3.90;;;8.50;99.90;;;;;;5043488;28;20116;-60
2023/10/19 06:45:25;;;;;;;4.63;4.18;;;8.50;99.90;;;;;;5046330;28;20033;-60
2023/10/19 06:47:52;;;;;;;4.43;3.85;;;8.50;99.90;;;;;;5047000;28;20116;-59
2023/10/19 06:50:20;;;;;;;5.82;3.85;;;8.50;99.90;;;;;;5040669;28;20483;-59
2023/10/19 06:52:47;;;;;;;5.20;4.13;;;8.50;99.90;;;;;;5033988;28;20123;-59
2023/10/19 06:55:16;;;;;;;4.43;3.75;;;8.50;99.90;;;;;;5034515;28;20045;-60
2023/10/19 06:57:50;;;;;;;5.05;4.13;;;8.50;99.90;;;;;;5028917;28;20843;-60
2023/10/19 07:00:20;;;;;;;3.67;3.35;;;8.60;99.90;;;;;;5039697;28;20033;-59
2023/10/19 07:02:47;;;;;;;3.95;3.50;;;8.60;99.90;;;;;;5030249;28;20037;-60
2023/10/19 07:05:18;;;;;;;4.25;3.70;;;8.60;99.90;;;;;;5016649;28;20478;-59
2023/10/19 07:07:44;;;;;;;3.80;3.40;;;8.60;99.90;;;;;;5022288;28;20051;-59
2023/10/19 07:10:12;;;;;;;3.97;3.58;;;8.60;99.90;;;;;;5037759;28;20131;-60
2023/10/19 07:12:41;;;;;;;3.67;3.30;;;8.60;99.90;;;;;;5039290;28;20049;-59
2023/10/19 07:15:08;;;;;;;4.03;3.55;;;8.60;99.90;;;;;;5039321;28;20281;-60
2023/10/19 07:17:40;;;;;;;3.95;3.55;;;8.60;99.90;;;;;;5041603;28;20048;-60
2023/10/19 07:20:06;;;;;;;3.88;3.42;;;8.60;99.90;;;;;;5037665;28;20439;-60
2023/10/19 07:22:39;;;;;;;3.72;3.30;;;8.60;99.90;;;;;;5023730;28;20044;-59
2023/10/19 07:25:06;;;;;;;3.83;3.00;;;8.60;99.90;;;;;;5038211;28;20052;-60
2023/10/19 07:27:33;;;;;;;3.33;3.03;;;8.60;99.90;;;;;;5042338;28;20067;-60
2023/10/19 07:30:00;;;;;;;3.08;2.78;;;8.60;99.90;;;;;;5039326;28;20378;-60
2023/10/19 07:32:26;;;;;;;3.40;3.10;;;8.60;99.90;;;;;;5040336;28;20391;-59
2023/10/19 07:34:51;;;;;;;3.70;2.83;;;8.60;99.90;;;;;;5037673;28;20048;-58
2023/10/19 07:37:17;;;;;;;3.33;3.00;;;8.70;99.90;;;;;;5035976;28;20072;-60
2023/10/19 07:39:47;;;;;;;3.17;2.88;;;8.60;99.90;;;;;;5038461;28;20041;-60
2023/10/19 07:42:14;;;;;;;3.17;2.85;;;8.60;99.90;;;;;;5038759;28;20140;-59
2023/10/19 07:44:41;;;;;;;3.40;2.95;;;8.60;99.90;;;;;;5032895;28;20107;-59
2023/10/19 07:47:09;;;;;;;3.20;2.90;;;8.60;99.90;;;;;;5045497;28;20124;-60
2023/10/19 07:49:39;;;;;;;5.57;3.00;;;8.60;99.90;;;;;;5039001;28;20166;-59
2023/10/19 07:52:10;;;;;;;3.00;2.70;;;8.60;99.90;;;;;;5045191;28;20044;-59
2023/10/19 07:54:37;;;;;;;3.20;2.90;;;8.60;99.90;;;;;;5019868;28;20087;-60
2023/10/19 07:57:05;;;;;;;3.70;3.30;;;8.60;99.90;;;;;;5021673;28;20037;-60
2023/10/19 07:59:35;;;;;;;3.15;2.70;;;8.60;99.90;;;;;;5022440;28;20965;-60
2023/10/19 08:02:04;;;;;;;3.15;2.80;;;8.60;99.90;;;;;;5037608;28;20033;-59
2023/10/19 08:04:30;;;;;;;3.35;3.05;;;8.60;99.90;;;;;;5028037;28;20045;-60
2023/10/19 08:06:57;;;;;;;3.28;2.90;;;8.60;99.90;;;;;;5037846;28;20052;-60
2023/10/19 08:09:26;;;;;;;3.40;3.10;;;8.60;99.90;;;;;;5020894;28;20068;-60
2023/10/19 08:11:59;;;;;;;3.30;3.00;;;8.60;99.90;;;;;;5040103;28;20470;-60
2023/10/19 08:14:28;;;;;;;4.97;3.13;;;8.60;99.90;;;;;;5033708;28;20040;-60
2023/10/19 08:16:54;;;;;;;3.95;3.28;;;8.60;99.90;;;;;;5039405;28;20502;-59
2023/10/19 08:19:20;;;;;;;3.47;3.10;;;8.60;99.90;;;;;;5021442;28;20041;-60
2023/10/19 08:21:46;;;;;;;3.30;3.00;;;8.60;99.90;;;;;;5036654;28;20036;-59
2023/10/19 08:24:17;;;;;;;3.50;3.20;;;8.60;99.90;;;;;;5038764;28;20091;-59
2023/10/19 08:26:45;;;;;;;4.63;3.50;;;8.60;99.90;;;;;;5039241;28;20126;-60
2023/10/19 08:29:12;;;;;;;3.47;3.17;;;8.60;99.90;;;;;;5037121;28;20056;-59
2023/10/19 08:31:42;;;;;;;3.83;3.45;;;8.60;99.90;;;;;;5036818;28;20061;-60
2023/10/19 08:34:09;;;;;;;4.45;3.60;;;8.60;99.90;;;;;;5042868;28;20120;-59
2023/10/19 08:36:37;;;;;;;4.63;3.63;;;8.60;99.90;;;;;;5037667;28;20049;-59
2023/10/19 08:39:08;;;;;;;4.05;3.67;;;8.60;99.90;;;;;;5037228;28;20045;-60
2023/10/19 08:41:35;;;;;;;4.32;3.83;;;8.60;99.90;;;;;;5036775;28;20044;-60
2023/10/19 08:44:11;;;;;;;4.38;3.97;;;8.60;99.90;;;;;;5038230;28;20094;-59
2023/10/19 08:46:47;;;;;;;4.65;4.05;;;8.70;99.90;;;;;;5009420;28;20052;-58
2023/10/19 08:49:16;;;;;;;4.22;3.83;;;8.70;99.90;;;;;;5040883;28;21103;-59
2023/10/19 08:51:46;;;;;;;4.47;4.07;;;8.60;99.90;;;;;;5019306;28;20037;-60
2023/10/19 08:54:14;;;;;;;4.55;4.13;;;8.70;99.90;;;;;;5036207;28;20150;-60
2023/10/19 08:56:41;;;;;;;5.15;4.53;;;8.70;99.90;;;;;;5036769;28;20506;-58
2023/10/19 08:59:08;;;;;;;4.97;4.20;;;8.70;99.90;;;;;;5037467;28;20582;-59
2023/10/19 09:01:37;;;;;;;4.57;4.10;;;8.70;99.90;;;;;;5035147;28;20040;-59
2023/10/19 09:04:05;;;;;;;5.15;4.05;;;8.70;99.90;;;;;;5039793;28;20734;-60
2023/10/19 09:06:41;;;;;;;5.57;4.00;;;8.80;99.90;;;;;;5039966;28;20497;-60
2023/10/19 09:09:16;;;;;;;5.32;4.22;;;8.80;99.90;;;;;;5037426;28;20049;-59
2023/10/19 09:11:48;;;;;;;4.63;4.22;;;8.80;99.90;;;;;;5036474;28;20084;-60
2023/10/19 09:14:33;;;;;;;6.25;4.20;;;8.80;99.90;;;;;;5038259;28;20373;-60
2023/10/19 09:17:00;;;;;;;4.95;4.38;;;8.80;99.90;;;;;;5037953;28;20487;-60
2023/10/19 09:19:37;;;;;;;5.00;4.38;;;8.80;99.90;;;;;;5036563;28;20102;-59
2023/10/19 09:22:22;;;;;;;6.70;4.80;;;8.90;99.90;;;;;;5037056;28;20032;-59
2023/10/19 09:24:53;;;;;;;6.10;4.43;;;8.90;99.90;;;;;;5037624;28;20051;-60
2023/10/19 09:27:22;;;;;;;6.03;4.63;;;8.90;99.90;;;;;;5019832;28;20040;-59
2023/10/19 09:29:51;;;;;;;5.95;4.95;;;8.90;99.90;;;;;;5036123;28;20488;-59
2023/10/19 09:32:17;;;;;;;5.53;4.60;;;8.90;99.90;;;;;;5035383;28;20048;-60
2023/10/19 09:34:44;;;;;;;7.10;4.65;;;8.90;99.90;;;;;;5036148;28;20045;-60
2023/10/19 09:37:11;;;;;;;5.97;4.90;;;8.90;99.90;;;;;;5033994;28;20080;-60
2023/10/19 09:39:39;;;;;;;10.48;5.13;;;8.90;99.90;;;;;;5038460;28;20090;-60
2023/10/19 09:42:12;;;;;;;5.60;4.70;;;8.90;99.90;;;;;;5037264;28;20114;-60
2023/10/19 09:44:43;;;;;;;6.93;5.30;;;9.00;99.90;;;;;;5036188;28;20043;-59
2023/10/19 09:47:30;;;;;;;6.55;5.03;;;9.00;99.90;;;;;;5037989;28;20167;-60
2023/10/19 09:49:57;;;;;;;7.53;5.03;;;9.00;99.90;;;;;;5027432;28;20053;-60
2023/10/19 09:52:24;;;;;;;5.90;5.05;;;9.10;99.90;;;;;;5016520;28;20044;-60
2023/10/19 09:55:06;;;;;;;7.57;5.00;;;9.10;99.90;;;;;;5013345;28;20114;-59
2023/10/19 09:57:37;;;;;;;7.32;4.95;;;9.10;99.90;;;;;;5010483;28;20072;-60
2023/10/19 10:00:11;;;;;;;6.43;5.18;;;9.20;99.90;;;;;;5033577;28;20109;-59
2023/10/19 10:02:42;;;;;;;10.18;5.88;;;9.20;99.90;;;;;;5034558;28;20395;-60
2023/10/19 10:05:42;;;;;;;8.05;5.57;;;9.20;99.90;;;;;;5035134;28;20036;-60
2023/10/19 10:08:17;;;;;;;8.10;5.85;;;9.20;99.90;;;;;;5019810;28;20033;-60
2023/10/19 10:10:47;;;;;;;7.10;5.75;;;9.30;99.90;;;;;;5015325;28;20044;-60
2023/10/19 10:13:27;;;;;;;7.63;5.60;;;9.30;99.90;;;;;;5033696;28;20798;-60
2023/10/19 10:15:55;;;;;;;9.32;5.70;;;9.30;99.90;;;;;;5028283;28;20045;-60
2023/10/19 10:18:23;;;;;;;8.43;5.85;;;9.30;99.90;;;;;;5035454;28;20123;-60
2023/10/19 10:21:05;;;;;;;9.75;6.32;;;9.30;99.90;;;;;;5033747;28;20087;-60
2023/10/19 10:23:34;;;;;;;7.18;5.53;;;9.30;99.90;;;;;;5017399;28;20091;-60
2023/10/19 10:26:00;;;;;;;8.13;5.95;;;9.30;99.90;;;;;;5014075;28;20041;-60
2023/10/19 10:28:28;;;;;;;11.43;5.80;;;9.40;99.90;;;;;;5029860;28;20049;-59
2023/10/19 10:31:13;;;;;;;7.07;5.40;;;9.40;99.90;;;;;;5014405;28;20205;-60
2023/10/19 10:33:46;;;;;;;8.05;5.75;;;9.40;99.90;;;;;;5035209;28;20316;-59
2023/10/19 10:36:19;;;;;;;8.63;6.05;;;9.40;99.90;;;;;;5013655;28;20103;-60
2023/10/19 10:38:52;;;;;;;11.00;6.07;;;9.50;99.90;;;;;;5011433;28;20037;-61
2023/10/19 10:41:28;;;;;;;8.43;5.85;;;9.40;99.90;;;;;;5027246;28;20434;-59
2023/10/19 10:43:55;;;;;;;9.80;6.30;;;9.50;99.90;;;;;;5030094;28;20116;-59
2023/10/19 10:46:31;;;;;;;10.60;6.32;;;9.50;99.90;;;;;;5033287;28;20242;-61
2023/10/19 10:48:57;;;;;;;8.75;6.40;;;9.50;99.90;;;;;;5034963;28;20427;-60
2023/10/19 10:51:27;;;;;;;8.95;6.07;;;9.50;99.90;;;;;;5030317;28;20120;-60
2023/10/19 10:53:54;;;;;;;8.98;6.25;;;9.60;99.90;;;;;;5031196;28;20167;-59
2023/10/19 10:56:22;;;;;;;8.25;6.30;;;9.50;99.90;;;;;;5026520;28;20067;-59
2023/10/19 10:58:49;;;;;;;14.35;6.85;;;9.50;99.90;;;;;;5033551;28;20074;-60
2023/10/19 11:01:27;;;;;;;9.30;6.57;;;9.50;99.90;;;;;;5031750;28;20499;-60
2023/10/19 11:04:08;;;;;;;10.18;7.15;;;9.50;99.90;;;;;;5034422;28;20387;-60
2023/10/19 11:06:47;;;;;;;10.77;7.30;;;9.50;99.90;;;;;;5031218;28;20176;-59
2023/10/19 11:09:14;;;;;;;9.75;7.25;;;9.50;99.90;;;;;;5011374;28;20041;-59
2023/10/19 11:11:41;;;;;;;11.32;7.10;;;9.50;99.90;;;;;;5009066;28;20112;-60
2023/10/19 11:14:11;;;;;;;10.93;6.93;;;9.50;99.90;;;;;;5035093;28;20040;-60
2023/10/19 11:16:39;;;;;;;8.93;7.40;;;9.50;99.90;;;;;;5021798;28;20373;-60
2023/10/19 11:19:05;;;;;;;9.70;6.88;;;9.50;99.90;;;;;;5039931;28;20127;-59
2023/10/19 11:21:31;;;;;;;9.25;6.97;;;9.50;99.90;;;;;;5040921;28;20615;-60
2023/10/19 11:23:57;;;;;;;8.40;7.03;;;9.50;99.90;;;;;;5007555;28;20045;-60
2023/10/19 11:26:24;;;;;;;9.10;7.03;;;9.40;99.90;;;;;;5020513;28;20055;-60
2023/10/19 11:29:09;;;;;;;9.45;6.40;;;9.40;99.90;;;;;;5037548;28;20058;-60
2023/10/19 11:31:39;;;;;;;7.95;6.53;;;9.40;99.90;;;;;;5019793;28;20048;-60
2023/10/19 11:34:06;;;;;;;10.27;6.20;;;9.40;99.90;;;;;;5026055;28;20511;-60
2023/10/19 11:36:31;;;;;;;8.98;6.53;;;9.50;99.90;;;;;;5038449;28;20055;-60
2023/10/19 11:38:57;;;;;;;9.90;6.95;;;9.50;99.90;;;;;;5038218;28;20582;-59
2023/10/19 11:41:23;;;;;;;8.23;6.40;;;9.50;99.90;;;;;;5021759;28;20033;-60
2023/10/19 11:43:49;;;;;;;8.45;6.57;;;9.30;99.90;;;;;;5044867;28;20474;-60
2023/10/19 11:46:17;;;;;;;9.60;6.47;;;9.50;99.90;;;;;;5041990;28;20063;-60
2023/10/19 11:48:43;;;;;;;8.55;6.72;;;9.50;99.90;;;;;;5040844;28;20040;-60
2023/10/19 11:51:13;;;;;;;11.68;7.28;;;9.40;99.90;;;;;;5037329;28;20510;-60
2023/10/19 11:53:39;;;;;;;8.00;6.60;;;9.50;99.90;;;;;;5020657;28;20049;-60
2023/10/19 11:56:07;;;;;;;10.43;7.35;;;9.50;99.90;;;;;;5021636;28;20539;-59
2023/10/19 11:58:34;;;;;;;18.48;8.65;;;9.50;99.90;;;;;;5037545;28;20189;-60
2023/10/19 12:01:12;;;;;;;21.42;9.25;;;9.50;99.90;;;;;;5040099;28;20048;-60
2023/10/19 12:03:41;;;;;;;9.98;8.88;;;9.50;99.90;;;;;;5038776;28;20064;-60
2023/10/19 12:06:08;;;;;;;11.77;10.52;;;9.50;99.90;;;;;;5037291;28;20040;-60
2023/10/19 12:08:35;;;;;;;14.40;11.82;;;9.40;99.90;;;;;;5036127;28;20072;-60
2023/10/19 12:11:03;;;;;;;15.65;13.13;;;9.40;99.90;;;;;;5030664;28;20115;-60
2023/10/19 12:13:29;;;;;;;17.73;13.77;;;9.40;99.90;;;;;;4993361;28;20522;-60
2023/10/19 12:15:55;;;;;;;17.45;14.50;;;9.40;99.90;;;;;;5019768;28;20045;-60
2023/10/19 12:18:28;;;;;;;18.27;13.77;;;9.50;99.90;;;;;;5035768;28;20037;-59
2023/10/19 12:20:58;;;;;;;17.35;14.30;;;9.50;99.90;;;;;;5036947;28;20048;-59
2023/10/19 12:23:25;;;;;;;18.20;14.35;;;9.50;99.90;;;;;;5035338;28;20041;-60
2023/10/19 12:25:51;;;;;;;17.75;13.55;;;9.50;99.90;;;;;;5033033;28;20049;-60
2023/10/19 12:28:18;;;;;;;15.30;12.35;;;9.50;99.90;;;;;;5029528;28;20083;-58
2023/10/19 12:30:44;;;;;;;14.95;11.40;;;9.50;99.90;;;;;;5009766;28;20466;-60
2023/10/19 12:33:13;;;;;;;14.63;12.07;;;9.50;99.90;;;;;;5031699;28;20040;-59
2023/10/19 12:35:49;;;;;;;14.38;10.30;;;9.40;99.90;;;;;;5028712;28;20049;-60
2023/10/19 12:38:16;;;;;;;13.20;10.13;;;9.40;99.90;;;;;;4999225;28;20755;-60
2023/10/19 12:40:46;;;;;;;13.25;10.63;;;9.40;99.90;;;;;;5031085;28;20044;-59
2023/10/19 12:43:13;;;;;;;12.80;10.05;;;9.40;99.90;;;;;;5040215;28;20033;-60
2023/10/19 12:45:39;;;;;;;13.13;10.57;;;9.40;99.90;;;;;;5035385;28;20033;-60
2023/10/19 12:48:07;;;;;;;13.25;10.25;;;9.40;99.90;;;;;;5017838;28;20728;-60
2023/10/19 12:50:34;;;;;;;14.07;10.02;;;9.30;99.90;;;;;;5039537;28;20045;-59
2023/10/19 12:53:00;;;;;;;13.80;8.95;;;9.30;99.90;;;;;;5035483;28;20049;-60
2023/10/19 12:55:27;;;;;;;9.93;8.20;;;9.30;99.90;;;;;;5015744;28;20471;-60
2023/10/19 12:58:06;;;;;;;10.95;7.65;;;9.30;99.90;;;;;;5018307;28;20128;-60
2023/10/19 13:00:43;;;;;;;9.98;7.35;;;9.30;99.90;;;;;;5033186;28;20495;-60
2023/10/19 13:03:13;;;;;;;10.85;7.38;;;9.20;99.90;;;;;;5012611;28;20162;-60
2023/10/19 13:05:40;;;;;;;10.48;7.38;;;9.30;99.90;;;;;;5029661;28;20040;-60
2023/10/19 13:08:15;;;;;;;7.63;6.82;;;9.30;99.90;;;;;;5008586;28;20597;-60
2023/10/19 13:10:43;;;;;;;10.25;7.22;;;9.20;99.90;;;;;;5029097;28;20186;-60
2023/10/19 13:13:14;;;;;;;9.23;6.45;;;9.20;99.90;;;;;;5031259;28;20053;-60
2023/10/19 13:15:44;;;;;;;10.77;6.72;;;9.20;99.90;;;;;;5029404;28;20127;-60
2023/10/19 13:18:10;;;;;;;7.82;6.68;;;9.20;99.90;;;;;;5027389;28;20049;-59
2023/10/19 13:20:43;;;;;;;10.27;6.32;;;9.20;99.90;;;;;;5027547;28;20684;-60
2023/10/19 13:23:15;;;;;;;9.02;6.55;;;9.20;99.90;;;;;;5009454;28;20128;-60
2023/10/19 13:25:46;;;;;;;11.55;6.32;;;9.20;99.90;;;;;;4994919;28;20037;-60
2023/10/19 13:28:13;;;;;;;9.07;6.40;;;9.20;99.90;;;;;;5033684;28;20115;-60